Time;durP1;ratioP1;P1;durP2;ratioP2;P2;SDS_P1;SDS_P2;PMS_P1;PMS_P2;Temp;Humidity;BMP_temperature;BMP_pressure;BME280_temperature;BME280_humidity;BME280_pressure;Samples;Min_cycle;Max_cycle;Signal;HPM_P1;HPM_P2
2021/06/11 00:00:15;;;;;;;5.07;1.90;;;22.40;36.10;;;;;;1049186;28;20025;-74
2021/06/11 00:00:48;;;;;;;4.43;1.55;;;22.30;35.90;;;;;;1049149;28;20043;-75
2021/06/11 00:01:19;;;;;;;4.53;1.90;;;22.30;36.10;;;;;;1049282;28;20428;-77
2021/06/11 00:01:51;;;;;;;4.07;1.90;;;22.30;36.30;;;;;;1049335;28;20096;-76
2021/06/11 00:02:22;;;;;;;3.55;1.58;;;22.20;35.90;;;;;;1052744;28;20073;-74
2021/06/11 00:02:54;;;;;;;3.45;1.58;;;22.20;36.10;;;;;;1042852;28;20032;-74
2021/06/11 00:03:25;;;;;;;3.42;1.85;;;22.20;36.30;;;;;;1041711;28;20017;-76
2021/06/11 00:03:56;;;;;;;4.25;1.70;;;22.20;36.60;;;;;;1044843;28;20017;-74
2021/06/11 00:04:28;;;;;;;2.95;1.65;;;22.10;36.70;;;;;;1045565;28;20053;-74
2021/06/11 00:04:59;;;;;;;2.85;1.73;;;22.10;36.90;;;;;;1049101;28;20031;-73
2021/06/11 00:05:31;;;;;;;2.55;1.45;;;22.10;37.20;;;;;;1049302;28;20013;-74
2021/06/11 00:06:03;;;;;;;4.43;1.85;;;22.10;37.50;;;;;;1049307;28;20086;-74
2021/06/11 00:06:36;;;;;;;5.18;2.00;;;22.10;37.70;;;;;;1049290;28;20465;-74
2021/06/11 00:07:07;;;;;;;2.75;1.67;;;22.20;37.70;;;;;;1053218;28;20058;-75
2021/06/11 00:07:38;;;;;;;5.88;1.83;;;22.20;37.50;;;;;;1053456;28;20028;-74
2021/06/11 00:08:10;;;;;;;3.40;1.73;;;22.20;37.60;;;;;;1053475;28;20024;-75
2021/06/11 00:08:42;;;;;;;2.72;1.65;;;22.20;37.50;;;;;;1052968;28;20077;-77
2021/06/11 00:09:14;;;;;;;3.40;1.77;;;22.20;37.50;;;;;;1049457;28;20040;-75
2021/06/11 00:09:46;;;;;;;2.55;1.63;;;22.20;37.00;;;;;;1049659;28;20017;-74
2021/06/11 00:10:17;;;;;;;2.38;1.30;;;22.20;36.90;;;;;;1049567;28;20021;-75
2021/06/11 00:10:49;;;;;;;2.30;1.75;;;22.20;36.70;;;;;;1049499;28;20020;-75
2021/06/11 00:11:20;;;;;;;3.20;1.67;;;22.20;36.90;;;;;;1049375;28;20035;-75
2021/06/11 00:11:52;;;;;;;3.25;1.55;;;22.10;37.10;;;;;;1049545;28;20021;-74
2021/06/11 00:12:23;;;;;;;3.38;1.67;;;22.10;37.00;;;;;;1049456;28;20024;-75
2021/06/11 00:12:55;;;;;;;4.43;1.92;;;22.10;37.50;;;;;;1053374;28;20063;-75
2021/06/11 00:13:26;;;;;;;2.65;1.60;;;22.10;37.10;;;;;;1053217;28;20039;-75
2021/06/11 00:13:57;;;;;;;2.33;1.58;;;22.20;36.90;;;;;;1053384;28;20024;-74
2021/06/11 00:14:29;;;;;;;2.75;1.60;;;22.20;37.00;;;;;;1052978;28;20445;-75
2021/06/11 00:15:00;;;;;;;3.17;1.98;;;22.10;37.10;;;;;;1049565;28;20024;-75
2021/06/11 00:15:32;;;;;;;3.80;1.88;;;22.10;37.00;;;;;;1053377;28;20023;-75
2021/06/11 00:16:03;;;;;;;4.10;2.22;;;22.20;37.00;;;;;;1053949;28;20016;-74
2021/06/11 00:16:35;;;;;;;1.85;1.65;;;22.20;36.70;;;;;;1052834;28;20020;-74
2021/06/11 00:17:07;;;;;;;3.05;1.70;;;22.20;36.90;;;;;;1049522;28;20439;-74
2021/06/11 00:17:39;;;;;;;4.97;1.70;;;22.20;36.50;;;;;;1053072;28;20024;-74
2021/06/11 00:18:10;;;;;;;2.47;1.50;;;22.20;36.70;;;;;;1053446;28;20104;-75
2021/06/11 00:18:42;;;;;;;3.08;1.67;;;22.20;36.00;;;;;;1053418;28;20449;-75
2021/06/11 00:19:13;;;;;;;2.97;1.70;;;22.20;36.20;;;;;;1053370;28;20023;-74
2021/06/11 00:19:44;;;;;;;4.75;2.05;;;22.20;36.60;;;;;;1053300;28;20093;-74
2021/06/11 00:20:16;;;;;;;3.38;2.20;;;22.30;36.70;;;;;;1053667;28;20073;-75
2021/06/11 00:20:47;;;;;;;4.35;2.10;;;22.30;36.90;;;;;;1053378;28;20496;-75
2021/06/11 00:21:19;;;;;;;4.93;2.00;;;22.30;36.80;;;;;;1053380;28;20047;-75
2021/06/11 00:21:50;;;;;;;3.78;1.75;;;22.30;37.10;;;;;;1053305;28;20027;-75
2021/06/11 00:22:21;;;;;;;2.95;1.65;;;22.30;37.40;;;;;;1053364;28;20050;-75
2021/06/11 00:22:53;;;;;;;3.88;1.77;;;22.40;37.50;;;;;;1053388;28;20051;-78
2021/06/11 00:23:24;;;;;;;3.95;1.95;;;22.40;37.40;;;;;;1053299;28;20016;-75
2021/06/11 00:23:56;;;;;;;2.72;1.85;;;22.50;37.20;;;;;;1053540;28;20335;-74
2021/06/11 00:24:27;;;;;;;4.70;1.83;;;22.50;37.10;;;;;;1053240;28;20016;-75
2021/06/11 00:24:59;;;;;;;2.92;1.58;;;22.50;37.30;;;;;;1053248;28;20044;-75
2021/06/11 00:25:30;;;;;;;3.00;1.80;;;22.50;37.10;;;;;;1053402;28;20019;-75
2021/06/11 00:26:02;;;;;;;3.75;1.90;;;22.50;36.60;;;;;;1050327;28;20024;-77
2021/06/11 00:26:33;;;;;;;5.78;2.00;;;22.50;36.70;;;;;;1049065;28;20020;-75
2021/06/11 00:27:05;;;;;;;3.47;1.90;;;22.50;36.60;;;;;;1049187;28;20020;-74
2021/06/11 00:27:37;;;;;;;2.53;1.77;;;22.50;36.40;;;;;;1045518;28;20116;-74
2021/06/11 00:28:08;;;;;;;3.55;1.75;;;22.50;36.70;;;;;;1045010;28;20028;-74
2021/06/11 00:28:40;;;;;;;2.90;1.58;;;22.50;36.20;;;;;;1044959;28;20029;-74
2021/06/11 00:29:11;;;;;;;2.53;1.65;;;22.50;36.60;;;;;;1045391;28;20024;-73
2021/06/11 00:29:42;;;;;;;3.58;1.90;;;22.50;37.10;;;;;;1049161;28;20047;-74
2021/06/11 00:30:15;;;;;;;3.53;1.73;;;22.50;37.60;;;;;;1049126;28;20016;-74
2021/06/11 00:30:47;;;;;;;3.83;2.17;;;22.50;38.00;;;;;;1048853;28;20032;-75
2021/06/11 00:31:18;;;;;;;2.83;1.50;;;22.50;37.40;;;;;;1049166;28;20020;-75
2021/06/11 00:31:50;;;;;;;3.70;1.80;;;22.50;36.50;;;;;;1049210;28;20482;-75
2021/06/11 00:32:21;;;;;;;3.60;1.90;;;22.50;36.30;;;;;;1049105;28;20027;-74
2021/06/11 00:32:52;;;;;;;4.18;1.70;;;22.50;36.70;;;;;;1049417;28;20016;-76
2021/06/11 00:33:24;;;;;;;2.10;1.50;;;22.50;36.80;;;;;;1053142;28;20480;-75
2021/06/11 00:33:55;;;;;;;5.15;2.00;;;22.60;37.00;;;;;;1053204;28;20099;-75
2021/06/11 00:34:27;;;;;;;3.85;2.10;;;22.50;37.30;;;;;;1049052;28;20024;-75
2021/06/11 00:34:58;;;;;;;6.20;1.92;;;22.50;37.50;;;;;;1048575;28;20025;-74
2021/06/11 00:35:30;;;;;;;3.25;1.75;;;22.40;37.70;;;;;;1045530;28;20021;-74
2021/06/11 00:36:01;;;;;;;3.05;1.60;;;22.40;37.40;;;;;;1049206;28;20370;-75
2021/06/11 00:36:32;;;;;;;5.90;1.88;;;22.50;36.70;;;;;;1045307;28;20517;-76
2021/06/11 00:37:04;;;;;;;5.95;1.75;;;22.40;36.80;;;;;;1049159;28;20027;-78
2021/06/11 00:37:36;;;;;;;3.25;1.63;;;22.40;37.00;;;;;;1049124;28;20107;-76
2021/06/11 00:38:08;;;;;;;10.25;2.15;;;22.40;36.70;;;;;;1049184;28;20016;-74
2021/06/11 00:38:39;;;;;;;5.22;1.98;;;22.40;36.90;;;;;;1053262;28;20440;-74
2021/06/11 00:39:11;;;;;;;4.97;2.05;;;22.30;37.30;;;;;;1053313;28;20023;-74
2021/06/11 00:39:42;;;;;;;3.25;1.80;;;22.30;37.60;;;;;;1053347;28;20063;-79
2021/06/11 00:40:14;;;;;;;4.80;1.90;;;22.30;37.80;;;;;;1053032;28;20026;-75
2021/06/11 00:40:46;;;;;;;4.18;1.75;;;22.30;37.60;;;;;;1053185;28;20480;-74
2021/06/11 00:41:17;;;;;;;3.03;1.90;;;22.30;37.60;;;;;;1053236;28;20024;-76
2021/06/11 00:41:49;;;;;;;3.67;1.70;;;22.30;37.60;;;;;;1053204;28;20477;-75
2021/06/11 00:42:20;;;;;;;4.38;2.10;;;22.30;37.90;;;;;;1052820;28;20015;-74
2021/06/11 00:42:52;;;;;;;4.22;1.90;;;22.20;38.40;;;;;;1049077;28;20143;-74
2021/06/11 00:43:23;;;;;;;3.20;1.88;;;22.20;38.50;;;;;;1049149;28;20355;-75
2021/06/11 00:43:54;;;;;;;3.20;1.58;;;22.30;38.20;;;;;;1048907;28;20055;-75
2021/06/11 00:44:26;;;;;;;3.92;1.73;;;22.30;37.80;;;;;;1049132;28;20324;-75
2021/06/11 00:44:57;;;;;;;3.45;1.70;;;22.30;37.70;;;;;;1048989;28;20028;-74
2021/06/11 00:45:29;;;;;;;4.00;1.70;;;22.30;37.20;;;;;;1049089;28;20417;-74
2021/06/11 00:46:00;;;;;;;2.53;1.60;;;22.30;37.50;;;;;;1048984;28;20070;-74
2021/06/11 00:46:32;;;;;;;4.68;1.73;;;22.20;37.60;;;;;;1044911;28;20021;-75
2021/06/11 00:47:03;;;;;;;4.80;1.98;;;22.30;37.60;;;;;;1044863;28;20343;-74
2021/06/11 00:47:35;;;;;;;4.22;1.80;;;22.20;37.70;;;;;;1045446;28;20029;-74
2021/06/11 00:48:07;;;;;;;4.53;1.90;;;22.20;37.70;;;;;;1049074;28;20020;-74
2021/06/11 00:48:39;;;;;;;3.08;1.73;;;22.10;37.80;;;;;;1049203;28;20009;-74
2021/06/11 00:49:10;;;;;;;4.47;1.98;;;22.10;37.70;;;;;;1049245;28;20040;-74
2021/06/11 00:49:42;;;;;;;2.03;1.52;;;22.10;38.10;;;;;;1049329;28;20449;-74
2021/06/11 00:50:20;;;;;;;4.60;1.98;;;22.10;38.20;;;;;;1049396;28;20419;-76
2021/06/11 00:50:51;;;;;;;4.15;1.80;;;22.10;38.10;;;;;;1049287;28;20040;-74
2021/06/11 00:51:24;;;;;;;3.33;2.00;;;22.10;37.80;;;;;;1049275;28;20017;-75
2021/06/11 00:51:55;;;;;;;4.05;1.90;;;22.10;37.60;;;;;;1047472;28;20102;-74
2021/06/11 00:52:27;;;;;;;4.05;1.90;;;22.10;37.70;;;;;;1048966;28;20052;-74
2021/06/11 00:53:00;;;;;;;2.63;1.63;;;22.10;37.50;;;;;;1045943;28;20075;-74
2021/06/11 00:53:32;;;;;;;2.15;1.60;;;22.00;37.80;;;;;;1044968;28;20652;-75
2021/06/11 00:54:03;;;;;;;4.70;1.80;;;22.00;37.60;;;;;;1044973;28;20084;-75
2021/06/11 00:54:35;;;;;;;3.55;1.80;;;22.00;37.50;;;;;;1044948;28;20021;-75
2021/06/11 00:55:07;;;;;;;3.78;1.80;;;22.00;37.60;;;;;;1045148;28;20096;-75
2021/06/11 00:55:46;;;;;;;3.78;1.77;;;22.00;37.60;;;;;;1045073;28;20446;-74
2021/06/11 00:56:17;;;;;;;2.88;1.75;;;22.00;37.70;;;;;;1045292;28;20032;-75
2021/06/11 00:56:49;;;;;;;4.18;2.33;;;22.00;37.60;;;;;;1045082;28;20013;-74
2021/06/11 00:57:20;;;;;;;5.00;1.98;;;22.00;37.60;;;;;;1044671;28;20389;-75
2021/06/11 00:57:51;;;;;;;3.03;1.90;;;22.00;37.80;;;;;;1044954;28;20039;-74
2021/06/11 00:58:23;;;;;;;4.55;1.83;;;22.00;37.70;;;;;;1044963;28;20025;-75
2021/06/11 00:58:55;;;;;;;4.40;1.80;;;21.90;37.70;;;;;;1044807;28;20017;-75
2021/06/11 00:59:28;;;;;;;2.88;1.58;;;21.90;37.70;;;;;;1044994;28;20029;-74
2021/06/11 00:59:59;;;;;;;4.43;2.10;;;21.90;37.80;;;;;;1044947;28;20016;-74
2021/06/11 01:00:31;;;;;;;3.67;1.85;;;21.90;37.90;;;;;;1044749;28;20378;-74
2021/06/11 01:01:02;;;;;;;2.92;1.77;;;21.80;37.90;;;;;;1044732;28;20518;-74
2021/06/11 01:01:33;;;;;;;4.68;2.03;;;21.90;38.00;;;;;;1045030;28;20013;-74
2021/06/11 01:02:05;;;;;;;5.45;1.90;;;21.80;38.10;;;;;;1044917;28;20457;-76
2021/06/11 01:02:36;;;;;;;4.53;1.70;;;21.80;37.70;;;;;;1044966;28;20040;-75
2021/06/11 01:03:08;;;;;;;4.72;1.67;;;21.80;37.70;;;;;;1045106;28;20343;-74
2021/06/11 01:03:40;;;;;;;4.40;2.00;;;21.80;37.70;;;;;;1045156;28;20017;-75
2021/06/11 01:04:12;;;;;;;3.33;1.80;;;21.80;38.10;;;;;;1044908;28;20047;-77
2021/06/11 01:04:43;;;;;;;4.93;1.98;;;21.80;37.30;;;;;;1040615;28;20080;-76
2021/06/11 01:05:16;;;;;;;4.00;1.85;;;21.80;37.30;;;;;;1040699;28;20451;-75
2021/06/11 01:05:47;;;;;;;4.97;1.98;;;21.80;37.00;;;;;;1040692;28;20018;-76
2021/06/11 01:06:20;;;;;;;3.28;1.80;;;21.60;36.90;;;;;;1041489;28;20461;-75
2021/06/11 01:06:52;;;;;;;4.50;2.00;;;21.60;37.10;;;;;;1044799;28;20017;-76
2021/06/11 01:07:25;;;;;;;2.10;1.58;;;21.70;37.30;;;;;;1044810;28;20013;-74
2021/06/11 01:07:58;;;;;;;4.28;2.10;;;21.70;37.20;;;;;;1044880;28;20020;-75
2021/06/11 01:08:30;;;;;;;4.13;1.80;;;21.70;37.20;;;;;;1041520;28;20032;-75
2021/06/11 01:09:01;;;;;;;4.35;1.83;;;21.70;36.70;;;;;;1044797;28;20378;-75
2021/06/11 01:09:36;;;;;;;3.22;2.05;;;21.70;36.60;;;;;;1044882;28;20013;-74
2021/06/11 01:10:10;;;;;;;4.35;1.92;;;21.70;36.60;;;;;;1044958;28;20017;-76
2021/06/11 01:10:43;;;;;;;4.55;1.77;;;21.60;36.80;;;;;;1044588;28;20020;-75
2021/06/11 01:11:17;;;;;;;2.95;1.83;;;21.70;36.50;;;;;;1044183;28;20017;-75
2021/06/11 01:11:49;;;;;;;1.48;1.20;;;21.60;36.60;;;;;;1044885;28;20017;-74
2021/06/11 01:12:20;;;;;;;4.03;1.83;;;21.60;36.70;;;;;;1044764;28;20017;-76
2021/06/11 01:12:54;;;;;;;3.92;1.55;;;21.60;36.50;;;;;;1045579;28;20163;-74
2021/06/11 01:13:27;;;;;;;3.97;2.00;;;21.60;36.50;;;;;;1044706;28;20021;-74
2021/06/11 01:13:59;;;;;;;2.28;1.35;;;21.60;36.80;;;;;;1044862;28;20370;-76
2021/06/11 01:14:31;;;;;;;2.65;1.67;;;21.60;36.80;;;;;;1044874;28;20115;-74
2021/06/11 01:15:07;;;;;;;2.38;1.55;;;21.50;36.50;;;;;;1044702;28;20017;-75
2021/06/11 01:15:39;;;;;;;2.05;1.70;;;21.50;36.80;;;;;;1040537;28;20017;-74
2021/06/11 01:16:11;;;;;;;3.13;1.52;;;21.40;37.10;;;;;;1040682;28;20494;-74
2021/06/11 01:16:42;;;;;;;4.47;1.77;;;21.40;37.10;;;;;;1041861;28;20459;-74
2021/06/11 01:17:14;;;;;;;4.65;2.00;;;21.30;37.10;;;;;;1045101;28;20006;-76
2021/06/11 01:17:45;;;;;;;3.95;1.90;;;21.30;37.10;;;;;;1044668;28;20041;-74
2021/06/11 01:18:19;;;;;;;3.05;1.67;;;21.30;36.80;;;;;;1044819;28;20021;-74
2021/06/11 01:18:51;;;;;;;3.03;1.95;;;21.30;37.00;;;;;;1044721;28;20025;-74
2021/06/11 01:19:29;;;;;;;4.25;1.65;;;21.20;37.10;;;;;;1045638;28;20017;-75
2021/06/11 01:20:04;;;;;;;4.00;1.77;;;21.20;37.30;;;;;;1044875;28;20052;-75
2021/06/11 01:20:36;;;;;;;4.47;1.85;;;21.20;37.40;;;;;;1044717;28;20021;-75
2021/06/11 01:21:08;;;;;;;3.63;2.03;;;21.20;37.50;;;;;;1044861;28;20159;-76
2021/06/11 01:22:19;;;;;;;3.53;1.80;;;21.20;37.40;;;;;;1044781;28;20027;-74
2021/06/11 01:23:02;;;;;;;4.15;2.00;;;21.20;37.20;;;;;;1037633;28;20041;-75
2021/06/11 01:24:16;;;;;;;4.20;1.50;;;21.20;37.00;;;;;;1045059;28;20510;-74
2021/06/11 01:25:15;;;;;;;4.47;2.00;;;21.10;37.20;;;;;;1044552;28;20423;-74
2021/06/11 01:26:17;;;;;;;6.72;3.55;;;21.10;37.80;;;;;;1044871;28;20431;-75
2021/06/11 01:26:51;;;;;;;6.60;2.60;;;21.20;37.80;;;;;;1045074;28;20027;-74
2021/06/11 01:27:23;;;;;;;4.63;2.47;;;21.10;37.90;;;;;;1044953;28;20013;-75
2021/06/11 01:27:56;;;;;;;4.15;2.10;;;21.10;37.90;;;;;;1045060;28;20347;-75
2021/06/11 01:28:28;;;;;;;3.80;1.88;;;21.10;37.80;;;;;;1045030;28;20351;-75
2021/06/11 01:29:03;;;;;;;3.55;2.05;;;21.10;37.90;;;;;;1044947;28;20028;-74
2021/06/11 01:29:35;;;;;;;3.65;2.60;;;21.10;37.90;;;;;;1045092;28;20025;-74
2021/06/11 01:30:14;;;;;;;4.15;2.78;;;21.20;37.90;;;;;;1045109;28;20025;-74
2021/06/11 01:30:46;;;;;;;3.60;2.30;;;21.10;38.10;;;;;;1044940;28;20104;-74
2021/06/11 01:31:20;;;;;;;3.95;2.05;;;21.10;38.30;;;;;;1045005;28;20025;-76
2021/06/11 01:31:56;;;;;;;4.10;1.80;;;21.10;38.30;;;;;;1045072;28;20029;-75
2021/06/11 01:32:28;;;;;;;3.53;1.95;;;21.10;38.60;;;;;;1044698;28;20112;-75
2021/06/11 01:33:02;;;;;;;4.72;1.92;;;21.20;38.70;;;;;;1040607;28;20032;-75
2021/06/11 01:33:35;;;;;;;3.90;1.92;;;21.20;38.80;;;;;;1040595;28;20039;-74
2021/06/11 01:34:15;;;;;;;4.35;1.98;;;21.20;38.90;;;;;;1040672;28;20022;-74
2021/06/11 01:34:50;;;;;;;4.65;1.98;;;21.20;38.80;;;;;;1042949;28;20055;-75
2021/06/11 01:35:26;;;;;;;3.28;1.80;;;21.20;38.60;;;;;;1044900;28;20057;-75
2021/06/11 01:36:02;;;;;;;2.72;1.77;;;21.20;38.70;;;;;;1045060;28;20498;-75
2021/06/11 01:36:41;;;;;;;2.85;1.63;;;21.20;38.70;;;;;;1045093;28;20340;-75
2021/06/11 01:37:17;;;;;;;3.63;1.85;;;21.20;38.90;;;;;;1045027;28;20078;-78
2021/06/11 01:37:55;;;;;;;4.03;1.83;;;21.20;39.10;;;;;;1045274;28;20021;-74
2021/06/11 01:38:36;;;;;;;3.33;1.90;;;21.20;38.80;;;;;;1045049;28;20017;-75
2021/06/11 01:39:08;;;;;;;;;;;21.30;38.90;;;;;;1045475;28;20028;-74
2021/06/11 01:39:42;;;;;;;6.15;2.10;;;21.30;38.60;;;;;;1045077;28;19913;-75
2021/06/11 01:40:14;;;;;;;2.30;1.70;;;21.20;38.80;;;;;;1044673;28;20075;-74
2021/06/11 01:40:47;;;;;;;3.38;1.85;;;21.20;39.00;;;;;;1044825;28;20013;-75
2021/06/11 01:41:20;;;;;;;4.18;2.10;;;21.20;39.20;;;;;;1044707;28;20043;-78
2021/06/11 01:41:54;;;;;;;4.75;2.17;;;21.20;39.30;;;;;;1041650;28;20447;-76
2021/06/11 01:42:27;;;;;;;6.22;2.20;;;21.20;39.20;;;;;;1044758;28;20025;-75
2021/06/11 01:43:01;;;;;;;2.63;1.70;;;21.20;39.20;;;;;;1044881;28;20013;-74
2021/06/11 01:43:34;;;;;;;4.13;2.08;;;21.30;39.30;;;;;;1044877;28;20021;-75
2021/06/11 01:44:09;;;;;;;5.47;2.10;;;21.20;39.40;;;;;;1048786;28;20012;-75
2021/06/11 01:44:42;;;;;;;5.30;1.88;;;21.20;39.50;;;;;;1049126;28;20074;-75
2021/06/11 01:45:14;;;;;;;4.60;1.88;;;21.10;39.40;;;;;;1049046;28;20026;-75
2021/06/11 01:45:46;;;;;;;3.40;2.05;;;21.10;40.10;;;;;;1049150;28;20156;-76
2021/06/11 01:46:20;;;;;;;6.50;2.30;;;21.10;39.60;;;;;;1049127;28;20021;-75
2021/06/11 01:46:55;;;;;;;4.40;1.60;;;21.10;40.10;;;;;;1049259;28;20111;-75
2021/06/11 01:47:27;;;;;;;2.00;1.50;;;21.10;39.60;;;;;;1049034;28;20107;-74
2021/06/11 01:48:00;;;;;;;3.35;1.70;;;21.00;39.70;;;;;;1045222;28;20114;-74
2021/06/11 01:48:32;;;;;;;3.13;1.65;;;21.00;39.50;;;;;;1046177;28;20096;-74
2021/06/11 01:49:05;;;;;;;2.95;1.63;;;21.00;39.60;;;;;;1049323;28;20409;-75
2021/06/11 01:49:37;;;;;;;2.72;1.67;;;20.90;39.60;;;;;;1051631;28;20410;-75
2021/06/11 01:50:10;;;;;;;2.63;1.80;;;20.90;39.70;;;;;;1052751;28;20013;-75
2021/06/11 01:50:42;;;;;;;3.17;1.80;;;20.90;39.70;;;;;;1052602;28;20023;-74
2021/06/11 01:51:15;;;;;;;4.97;1.80;;;20.80;39.50;;;;;;1052738;28;20031;-75
2021/06/11 01:51:47;;;;;;;4.20;1.95;;;20.90;39.70;;;;;;1050534;28;20040;-76
2021/06/11 01:52:19;;;;;;;3.80;1.70;;;20.80;39.80;;;;;;1050741;28;20036;-74
2021/06/11 01:52:53;;;;;;;3.85;1.90;;;20.80;39.90;;;;;;1050505;28;20122;-75
2021/06/11 01:53:25;;;;;;;4.50;1.63;;;20.80;40.10;;;;;;1050267;28;20013;-74
2021/06/11 01:54:00;;;;;;;5.57;1.70;;;20.70;40.10;;;;;;1053177;28;20031;-74
2021/06/11 01:54:32;;;;;;;4.43;2.05;;;20.70;40.30;;;;;;1053296;28;20008;-74
2021/06/11 01:55:06;;;;;;;2.83;1.70;;;20.60;40.30;;;;;;1052799;28;20012;-74
2021/06/11 01:55:39;;;;;;;3.55;1.90;;;20.60;40.40;;;;;;1053014;28;20051;-75
2021/06/11 01:56:14;;;;;;;3.85;1.80;;;20.60;40.50;;;;;;1053026;28;20020;-74
2021/06/11 01:56:47;;;;;;;4.97;2.10;;;20.50;40.60;;;;;;1053089;28;20354;-74
2021/06/11 01:57:19;;;;;;;2.63;1.65;;;20.50;40.70;;;;;;1052829;28;20028;-74
2021/06/11 01:57:50;;;;;;;4.53;1.75;;;20.50;40.90;;;;;;1052941;28;20093;-75
2021/06/11 01:58:23;;;;;;;2.17;1.63;;;20.50;40.90;;;;;;1052894;28;20452;-74
2021/06/11 01:58:55;;;;;;;4.40;1.98;;;20.50;40.90;;;;;;1053052;28;20361;-76
2021/06/11 01:59:27;;;;;;;3.55;1.70;;;20.40;40.80;;;;;;1048734;28;20068;-74
2021/06/11 02:00:01;;;;;;;7.55;2.10;;;20.40;40.80;;;;;;1049619;28;20489;-75
2021/06/11 02:00:33;;;;;;;3.63;1.67;;;20.40;40.90;;;;;;1044296;28;20025;-75
2021/06/11 02:01:05;;;;;;;3.22;1.65;;;20.40;41.00;;;;;;1045620;28;20344;-75
2021/06/11 02:01:37;;;;;;;2.67;1.63;;;20.40;41.00;;;;;;1044605;28;20017;-74
2021/06/11 02:02:09;;;;;;;2.25;1.58;;;20.30;41.10;;;;;;1045486;28;20018;-74
2021/06/11 02:02:42;;;;;;;3.28;1.73;;;20.30;41.30;;;;;;1042216;28;20103;-75
2021/06/11 02:03:16;;;;;;;3.28;1.85;;;20.30;41.40;;;;;;1042981;28;20021;-75
2021/06/11 02:03:51;;;;;;;4.70;1.90;;;20.20;41.50;;;;;;1048348;28;20082;-75
2021/06/11 02:04:24;;;;;;;2.47;1.67;;;20.20;41.50;;;;;;1045378;28;20036;-75
2021/06/11 02:04:56;;;;;;;3.33;1.60;;;20.20;41.50;;;;;;1048509;28;20023;-74
2021/06/11 02:05:28;;;;;;;2.50;1.63;;;20.10;41.60;;;;;;1047316;28;20056;-75
2021/06/11 02:06:00;;;;;;;3.75;1.90;;;20.10;41.60;;;;;;1047857;28;20025;-73
2021/06/11 02:06:32;;;;;;;3.47;1.85;;;20.10;41.70;;;;;;1047375;28;20020;-73
2021/06/11 02:07:09;;;;;;;5.13;2.08;;;20.00;41.80;;;;;;1046623;28;20016;-73
2021/06/11 02:07:43;;;;;;;2.97;1.58;;;20.00;42.00;;;;;;1048381;28;20061;-74
2021/06/11 02:08:15;;;;;;;4.63;1.88;;;20.00;42.30;;;;;;1047886;28;20043;-74
2021/06/11 02:08:49;;;;;;;5.07;2.10;;;20.00;42.20;;;;;;1047411;28;20027;-74
2021/06/11 02:09:21;;;;;;;6.25;2.08;;;20.00;42.20;;;;;;1049751;28;20025;-74
2021/06/11 02:09:53;;;;;;;5.13;2.00;;;20.00;42.20;;;;;;1052994;28;20077;-74
2021/06/11 02:10:26;;;;;;;4.78;1.90;;;19.90;42.20;;;;;;1048364;28;20059;-73
2021/06/11 02:10:58;;;;;;;3.47;1.80;;;19.90;42.40;;;;;;1047460;28;20454;-73
2021/06/11 02:11:30;;;;;;;5.20;1.80;;;19.90;42.70;;;;;;1049025;28;20450;-74
2021/06/11 02:12:01;;;;;;;3.53;2.10;;;19.90;42.80;;;;;;1049021;28;20447;-73
2021/06/11 02:12:33;;;;;;;4.32;2.13;;;19.90;42.80;;;;;;1047046;28;20021;-74
2021/06/11 02:13:07;;;;;;;6.18;2.10;;;20.00;42.90;;;;;;1049323;28;20383;-73
2021/06/11 02:13:43;;;;;;;13.52;2.30;;;19.90;42.90;;;;;;1044755;28;20466;-74
2021/06/11 02:14:16;;;;;;;3.42;1.77;;;19.90;43.10;;;;;;1044479;28;20025;-75
2021/06/11 02:14:48;;;;;;;3.75;2.30;;;19.90;43.20;;;;;;1045089;28;20123;-73
2021/06/11 02:15:20;;;;;;;4.90;2.40;;;19.90;43.30;;;;;;1048405;28;20082;-73
2021/06/11 02:15:54;;;;;;;4.55;1.98;;;19.90;43.50;;;;;;1048914;28;20017;-74
2021/06/11 02:16:29;;;;;;;3.33;1.92;;;19.90;43.70;;;;;;1048839;28;20020;-74
2021/06/11 02:17:01;;;;;;;3.13;1.77;;;19.90;43.60;;;;;;1047988;28;20112;-72
2021/06/11 02:17:39;;;;;;;4.00;2.00;;;19.90;43.90;;;;;;1049350;28;20467;-72
2021/06/11 02:18:12;;;;;;;4.20;2.00;;;19.80;44.00;;;;;;1052900;28;20017;-73
2021/06/11 02:18:45;;;;;;;3.55;1.80;;;19.80;44.20;;;;;;1052843;28;20012;-73
2021/06/11 02:19:18;;;;;;;4.03;2.00;;;19.80;44.40;;;;;;1048411;28;20024;-72
2021/06/11 02:19:50;;;;;;;4.20;1.77;;;19.70;44.60;;;;;;1048922;28;20032;-72
2021/06/11 02:20:24;;;;;;;3.85;1.98;;;19.70;44.70;;;;;;1044229;28;20112;-73
2021/06/11 02:20:55;;;;;;;4.63;2.20;;;19.60;44.90;;;;;;1045406;28;20469;-73
2021/06/11 02:21:29;;;;;;;3.45;1.80;;;19.60;45.20;;;;;;1048604;28;20048;-72
2021/06/11 02:22:01;;;;;;;4.55;1.95;;;19.50;45.30;;;;;;1048056;28;20461;-73
2021/06/11 02:22:33;;;;;;;4.60;2.00;;;19.40;45.50;;;;;;1052578;28;20020;-73
2021/06/11 02:23:05;;;;;;;4.13;2.10;;;19.40;45.60;;;;;;1048520;28;20028;-73
2021/06/11 02:23:37;;;;;;;4.18;2.00;;;19.50;45.90;;;;;;1048692;28;20024;-73
2021/06/11 02:24:09;;;;;;;3.70;1.90;;;19.40;46.00;;;;;;1049459;28;20100;-72
2021/06/11 02:24:40;;;;;;;3.88;2.00;;;19.40;46.00;;;;;;1051123;28;20074;-72
2021/06/11 02:25:17;;;;;;;3.05;1.88;;;19.50;46.00;;;;;;1048296;28;20089;-72
2021/06/11 02:25:49;;;;;;;3.38;1.90;;;19.40;46.20;;;;;;1044382;28;20035;-72
2021/06/11 02:26:21;;;;;;;5.10;2.00;;;19.40;46.30;;;;;;1044253;28;20025;-72
2021/06/11 02:26:54;;;;;;;3.72;1.85;;;19.40;46.40;;;;;;1042355;28;20025;-73
2021/06/11 02:27:25;;;;;;;5.07;1.90;;;19.40;46.70;;;;;;1043335;28;20017;-73
2021/06/11 02:27:57;;;;;;;3.92;1.90;;;19.30;46.70;;;;;;1043712;28;20009;-72
2021/06/11 02:28:29;;;;;;;3.92;1.92;;;19.30;46.90;;;;;;1041206;28;20018;-72
2021/06/11 02:29:01;;;;;;;4.88;2.20;;;19.30;47.10;;;;;;1044014;28;20021;-72
2021/06/11 02:29:37;;;;;;;3.20;1.90;;;19.20;47.30;;;;;;1048120;28;20016;-72
2021/06/11 02:30:14;;;;;;;3.75;2.08;;;19.10;47.20;;;;;;1049057;28;20020;-72
2021/06/11 02:30:45;;;;;;;4.88;2.30;;;19.20;47.20;;;;;;1045889;28;20117;-72
2021/06/11 02:31:17;;;;;;;3.42;1.80;;;19.20;47.20;;;;;;1048390;28;20146;-72
2021/06/11 02:31:49;;;;;;;5.43;2.33;;;19.20;47.50;;;;;;1048574;28;20099;-73
2021/06/11 02:32:20;;;;;;;4.75;2.10;;;19.10;47.40;;;;;;1048685;28;20027;-73
2021/06/11 02:32:52;;;;;;;3.35;1.70;;;19.10;47.40;;;;;;1048278;28;20024;-73
2021/06/11 02:33:25;;;;;;;4.75;2.08;;;19.10;47.40;;;;;;1048321;28;20131;-72
2021/06/11 02:33:56;;;;;;;4.68;2.10;;;19.20;47.60;;;;;;1048899;28;20016;-72
2021/06/11 02:34:28;;;;;;;4.50;2.10;;;19.10;47.60;;;;;;1048828;28;20045;-73
2021/06/11 02:35:00;;;;;;;5.38;2.20;;;19.20;47.70;;;;;;1048924;28;20012;-73
2021/06/11 02:35:31;;;;;;;4.40;2.17;;;19.10;48.10;;;;;;1048957;28;20035;-73
2021/06/11 02:36:03;;;;;;;3.85;1.80;;;19.10;47.90;;;;;;1048756;28;20052;-73
2021/06/11 02:36:35;;;;;;;3.83;1.85;;;19.10;48.10;;;;;;1048807;28;20020;-72
2021/06/11 02:37:06;;;;;;;4.18;1.90;;;19.10;47.90;;;;;;1048804;28;20021;-73
2021/06/11 02:37:38;;;;;;;4.75;2.00;;;19.10;48.00;;;;;;1048853;28;20024;-73
2021/06/11 02:38:10;;;;;;;3.58;2.00;;;19.10;48.20;;;;;;1051303;28;20005;-72
2021/06/11 02:38:41;;;;;;;4.68;1.95;;;19.00;48.20;;;;;;1052326;28;20016;-72
2021/06/11 02:39:13;;;;;;;5.85;2.28;;;19.00;48.40;;;;;;1047758;28;20036;-73
2021/06/11 02:39:44;;;;;;;4.00;2.00;;;19.00;48.40;;;;;;1048380;28;20041;-73
2021/06/11 02:40:16;;;;;;;6.63;2.40;;;19.00;48.50;;;;;;1045071;28;20013;-73
2021/06/11 02:40:50;;;;;;;5.97;2.30;;;19.00;48.50;;;;;;1049816;28;20450;-72
2021/06/11 02:41:26;;;;;;;3.95;1.95;;;19.00;48.40;;;;;;1048526;28;20035;-73
2021/06/11 02:42:03;;;;;;;4.25;2.10;;;19.00;48.60;;;;;;1048533;28;20059;-72
2021/06/11 02:42:35;;;;;;;5.00;2.30;;;19.00;48.50;;;;;;1051964;28;20363;-73
2021/06/11 02:43:12;;;;;;;5.70;2.42;;;18.90;48.60;;;;;;1052880;28;20012;-72
2021/06/11 02:43:44;;;;;;;4.68;2.17;;;19.00;48.90;;;;;;1053183;28;20474;-73
2021/06/11 02:44:16;;;;;;;4.80;2.10;;;18.90;49.00;;;;;;1050567;28;20461;-72
2021/06/11 02:44:52;;;;;;;4.80;2.05;;;18.90;48.90;;;;;;1048551;28;20078;-72
2021/06/11 02:45:30;;;;;;;7.30;2.28;;;18.90;49.30;;;;;;1047408;28;20461;-73
2021/06/11 02:46:27;;;;;;;4.90;2.00;;;18.80;49.10;;;;;;1042179;28;20444;-73
2021/06/11 02:47:13;;;;;;;4.20;2.20;;;18.80;49.00;;;;;;1041900;28;20059;-72
2021/06/11 02:47:51;;;;;;;3.45;2.00;;;18.70;49.20;;;;;;1044405;28;20112;-72
2021/06/11 02:48:40;;;;;;;4.97;2.28;;;18.70;49.40;;;;;;1040212;28;20103;-72
2021/06/11 02:49:20;;;;;;;5.45;2.28;;;18.70;49.50;;;;;;1043755;28;20017;-72
2021/06/11 02:49:59;;;;;;;7.20;2.40;;;18.60;49.60;;;;;;1045504;28;20025;-71
2021/06/11 02:50:35;;;;;;;4.72;2.30;;;18.60;49.90;;;;;;1048947;28;20032;-72
2021/06/11 02:51:49;;;;;;;5.18;2.50;;;18.50;50.00;;;;;;1044646;28;20032;-72
2021/06/11 02:52:22;;;;;;;3.78;1.90;;;18.50;50.10;;;;;;1024133;29;20024;-72
2021/06/11 02:52:57;;;;;;;5.72;2.10;;;18.50;50.40;;;;;;1024036;29;20374;-72
2021/06/11 02:53:30;;;;;;;4.10;2.13;;;18.50;50.40;;;;;;1036703;28;20463;-72
2021/06/11 02:54:03;;;;;;;4.90;2.28;;;18.40;50.40;;;;;;1044697;28;20017;-72